sensor_id;sensor_type;location;lat;lon;timestamp;pressure;altitude;pressure_sealevel;temperature;humidity
7335;BME280;3708;42.632;23.378;2022-11-15T00:01:44;94870.94;;;8.90;57.99
7335;BME280;3708;42.632;23.378;2022-11-15T00:04:12;94868.97;;;8.96;58.05
7335;BME280;3708;42.632;23.378;2022-11-15T00:06:39;94868.19;;;8.95;57.50
7335;BME280;3708;42.632;23.378;2022-11-15T00:09:06;94865.88;;;8.94;57.41
7335;BME280;3708;42.632;23.378;2022-11-15T00:11:35;94871.19;;;9.02;57.52
7335;BME280;3708;42.632;23.378;2022-11-15T00:14:02;94868.28;;;9.04;56.96
7335;BME280;3708;42.632;23.378;2022-11-15T00:16:29;94862.00;;;9.05;56.89
7335;BME280;3708;42.632;23.378;2022-11-15T00:18:56;94861.13;;;8.96;56.92
7335;BME280;3708;42.632;23.378;2022-11-15T00:21:23;94864.41;;;9.01;57.27
7335;BME280;3708;42.632;23.378;2022-11-15T00:23:50;94869.53;;;8.93;57.61
7335;BME280;3708;42.632;23.378;2022-11-15T00:26:17;94862.22;;;8.95;58.26
7335;BME280;3708;42.632;23.378;2022-11-15T00:28:46;94864.69;;;9.00;58.40
7335;BME280;3708;42.632;23.378;2022-11-15T00:31:14;94861.28;;;9.13;58.50
7335;BME280;3708;42.632;23.378;2022-11-15T00:33:43;94855.97;;;9.18;58.67
7335;BME280;3708;42.632;23.378;2022-11-15T00:36:10;94857.31;;;9.15;59.04
7335;BME280;3708;42.632;23.378;2022-11-15T00:38:40;94850.50;;;9.28;59.06
7335;BME280;3708;42.632;23.378;2022-11-15T00:41:07;94846.69;;;9.12;59.46
7335;BME280;3708;42.632;23.378;2022-11-15T00:43:37;94850.75;;;9.18;59.09
7335;BME280;3708;42.632;23.378;2022-11-15T00:46:10;94852.66;;;9.26;58.47
7335;BME280;3708;42.632;23.378;2022-11-15T00:48:37;94844.41;;;8.97;58.60
7335;BME280;3708;42.632;23.378;2022-11-15T00:51:04;94851.75;;;8.95;59.03
7335;BME280;3708;42.632;23.378;2022-11-15T00:53:31;94843.84;;;8.73;59.31
7335;BME280;3708;42.632;23.378;2022-11-15T00:55:58;94842.69;;;8.79;59.05
7335;BME280;3708;42.632;23.378;2022-11-15T00:58:25;94842.94;;;8.91;59.07
7335;BME280;3708;42.632;23.378;2022-11-15T01:00:52;94832.31;;;8.74;59.41
7335;BME280;3708;42.632;23.378;2022-11-15T01:03:21;94839.22;;;8.42;59.78
7335;BME280;3708;42.632;23.378;2022-11-15T01:05:48;94842.88;;;8.69;59.43
7335;BME280;3708;42.632;23.378;2022-11-15T01:08:16;94829.41;;;8.89;58.82
7335;BME280;3708;42.632;23.378;2022-11-15T01:10:44;94833.78;;;8.80;58.47
7335;BME280;3708;42.632;23.378;2022-11-15T01:13:11;94828.56;;;8.80;58.45
7335;BME280;3708;42.632;23.378;2022-11-15T01:15:39;94836.75;;;8.87;58.08
7335;BME280;3708;42.632;23.378;2022-11-15T01:18:07;94843.66;;;8.28;59.89
7335;BME280;3708;42.632;23.378;2022-11-15T01:20:39;94831.97;;;7.61;62.63
7335;BME280;3708;42.632;23.378;2022-11-15T01:23:06;94828.88;;;7.27;64.31
7335;BME280;3708;42.632;23.378;2022-11-15T01:25:33;94830.63;;;7.32;64.41
7335;BME280;3708;42.632;23.378;2022-11-15T01:28:00;94829.34;;;7.80;63.98
7335;BME280;3708;42.632;23.378;2022-11-15T01:30:27;94823.88;;;8.09;63.23
7335;BME280;3708;42.632;23.378;2022-11-15T01:32:54;94830.09;;;8.13;63.14
7335;BME280;3708;42.632;23.378;2022-11-15T01:35:22;94828.94;;;8.19;62.61
7335;BME280;3708;42.632;23.378;2022-11-15T01:37:50;94831.44;;;8.24;61.72
7335;BME280;3708;42.632;23.378;2022-11-15T01:40:17;94831.84;;;8.31;61.12
7335;BME280;3708;42.632;23.378;2022-11-15T01:42:44;94822.75;;;8.15;60.27
7335;BME280;3708;42.632;23.378;2022-11-15T01:45:13;94828.03;;;7.64;61.22
7335;BME280;3708;42.632;23.378;2022-11-15T01:47:44;94829.38;;;7.61;61.61
7335;BME280;3708;42.632;23.378;2022-11-15T01:50:15;94831.72;;;7.63;62.10
7335;BME280;3708;42.632;23.378;2022-11-15T01:52:43;94825.34;;;7.69;62.43
7335;BME280;3708;42.632;23.378;2022-11-15T01:55:14;94821.16;;;8.00;61.96
7335;BME280;3708;42.632;23.378;2022-11-15T01:57:45;94826.81;;;8.21;61.73
7335;BME280;3708;42.632;23.378;2022-11-15T02:00:14;94819.09;;;8.29;60.25
7335;BME280;3708;42.632;23.378;2022-11-15T02:02:41;94824.88;;;8.26;59.40
7335;BME280;3708;42.632;23.378;2022-11-15T02:05:08;94816.88;;;8.36;58.82
7335;BME280;3708;42.632;23.378;2022-11-15T02:07:36;94824.69;;;8.50;59.10
7335;BME280;3708;42.632;23.378;2022-11-15T02:10:07;94816.78;;;8.55;58.35
7335;BME280;3708;42.632;23.378;2022-11-15T02:12:37;94821.59;;;8.48;57.94
7335;BME280;3708;42.632;23.378;2022-11-15T02:15:05;94827.69;;;8.57;57.45
7335;BME280;3708;42.632;23.378;2022-11-15T02:17:51;94816.97;;;8.31;57.56
7335;BME280;3708;42.632;23.378;2022-11-15T02:20:56;94821.44;;;8.44;57.74
7335;BME280;3708;42.632;23.378;2022-11-15T02:26:52;94811.56;;;8.41;57.17
7335;BME280;3708;42.632;23.378;2022-11-15T02:29:37;94822.09;;;8.36;57.51
7335;BME280;3708;42.632;23.378;2022-11-15T02:32:14;94823.06;;;8.40;57.21
7335;BME280;3708;42.632;23.378;2022-11-15T02:34:51;94817.16;;;8.49;57.17
7335;BME280;3708;42.632;23.378;2022-11-15T02:37:29;94812.34;;;8.42;57.67
7335;BME280;3708;42.632;23.378;2022-11-15T02:40:01;94813.91;;;8.43;57.53
7335;BME280;3708;42.632;23.378;2022-11-15T02:42:35;94810.19;;;8.44;57.51
7335;BME280;3708;42.632;23.378;2022-11-15T02:45:24;94809.63;;;8.33;57.35
7335;BME280;3708;42.632;23.378;2022-11-15T02:47:56;94806.88;;;8.25;57.75
7335;BME280;3708;42.632;23.378;2022-11-15T02:50:28;94817.84;;;8.40;57.09
7335;BME280;3708;42.632;23.378;2022-11-15T02:52:56;94816.78;;;8.41;56.79
7335;BME280;3708;42.632;23.378;2022-11-15T02:55:28;94807.31;;;8.32;57.15
7335;BME280;3708;42.632;23.378;2022-11-15T02:58:05;94815.91;;;8.32;56.93
7335;BME280;3708;42.632;23.378;2022-11-15T03:00:35;94814.56;;;8.35;56.66
7335;BME280;3708;42.632;23.378;2022-11-15T03:03:25;94813.88;;;8.29;57.12
7335;BME280;3708;42.632;23.378;2022-11-15T03:06:03;94806.31;;;8.14;57.66
7335;BME280;3708;42.632;23.378;2022-11-15T03:08:42;94812.63;;;8.27;57.68
7335;BME280;3708;42.632;23.378;2022-11-15T03:11:16;94819.28;;;8.33;57.70
7335;BME280;3708;42.632;23.378;2022-11-15T03:13:47;94816.19;;;8.31;57.13
7335;BME280;3708;42.632;23.378;2022-11-15T03:16:23;94812.25;;;8.33;56.79
7335;BME280;3708;42.632;23.378;2022-11-15T03:18:57;94812.63;;;8.27;57.29
7335;BME280;3708;42.632;23.378;2022-11-15T03:21:28;94815.16;;;8.32;57.22
7335;BME280;3708;42.632;23.378;2022-11-15T03:23:56;94813.88;;;8.29;57.13
7335;BME280;3708;42.632;23.378;2022-11-15T03:26:25;94805.72;;;8.17;57.40
7335;BME280;3708;42.632;23.378;2022-11-15T03:28:55;94808.81;;;8.06;57.90
7335;BME280;3708;42.632;23.378;2022-11-15T03:31:26;94806.97;;;8.20;57.65
7335;BME280;3708;42.632;23.378;2022-11-15T03:34:21;94797.78;;;8.09;58.59
7335;BME280;3708;42.632;23.378;2022-11-15T03:36:51;94799.63;;;8.08;58.78
7335;BME280;3708;42.632;23.378;2022-11-15T03:39:20;94794.78;;;8.15;58.51
7335;BME280;3708;42.632;23.378;2022-11-15T03:45:00;94790.50;;;8.38;58.38
7335;BME280;3708;42.632;23.378;2022-11-15T03:47:34;94782.97;;;8.36;57.85
7335;BME280;3708;42.632;23.378;2022-11-15T03:50:08;94788.19;;;8.36;57.28
7335;BME280;3708;42.632;23.378;2022-11-15T03:52:37;94782.34;;;8.39;57.56
7335;BME280;3708;42.632;23.378;2022-11-15T03:55:07;94782.56;;;8.29;57.53
7335;BME280;3708;42.632;23.378;2022-11-15T03:57:43;94769.09;;;8.22;57.51
7335;BME280;3708;42.632;23.378;2022-11-15T04:00:46;94774.59;;;7.94;58.62
7335;BME280;3708;42.632;23.378;2022-11-15T04:03:15;94771.72;;;7.95;58.17
7335;BME280;3708;42.632;23.378;2022-11-15T04:05:44;94775.63;;;7.65;58.01
7335;BME280;3708;42.632;23.378;2022-11-15T04:08:11;94781.09;;;7.50;57.54
7335;BME280;3708;42.632;23.378;2022-11-15T04:10:38;94774.25;;;7.04;56.95
7335;BME280;3708;42.632;23.378;2022-11-15T04:13:04;94777.78;;;6.75;57.92
7335;BME280;3708;42.632;23.378;2022-11-15T04:15:32;94783.63;;;6.67;57.78
7335;BME280;3708;42.632;23.378;2022-11-15T04:17:59;94779.53;;;6.61;58.48
7335;BME280;3708;42.632;23.378;2022-11-15T04:20:28;94780.22;;;6.48;59.14
7335;BME280;3708;42.632;23.378;2022-11-15T04:23:15;94775.16;;;6.38;59.52
7335;BME280;3708;42.632;23.378;2022-11-15T04:26:02;94774.22;;;6.29;60.47
7335;BME280;3708;42.632;23.378;2022-11-15T04:28:36;94759.97;;;6.22;60.53
7335;BME280;3708;42.632;23.378;2022-11-15T04:31:23;94767.63;;;6.13;62.03
7335;BME280;3708;42.632;23.378;2022-11-15T04:33:50;94764.19;;;6.18;61.88
7335;BME280;3708;42.632;23.378;2022-11-15T04:36:17;94765.75;;;6.19;63.16
7335;BME280;3708;42.632;23.378;2022-11-15T04:39:03;94774.13;;;6.34;63.11
7335;BME280;3708;42.632;23.378;2022-11-15T04:41:30;94766.91;;;6.31;63.57
7335;BME280;3708;42.632;23.378;2022-11-15T04:43:57;94767.41;;;6.33;64.52
7335;BME280;3708;42.632;23.378;2022-11-15T04:46:25;94765.72;;;6.42;65.16
7335;BME280;3708;42.632;23.378;2022-11-15T04:48:52;94771.59;;;6.53;64.61
7335;BME280;3708;42.632;23.378;2022-11-15T04:51:21;94768.34;;;6.42;64.77
7335;BME280;3708;42.632;23.378;2022-11-15T04:53:49;94769.38;;;6.41;64.68
7335;BME280;3708;42.632;23.378;2022-11-15T04:56:20;94761.50;;;6.46;64.87
7335;BME280;3708;42.632;23.378;2022-11-15T04:58:48;94770.81;;;6.52;64.67
7335;BME280;3708;42.632;23.378;2022-11-15T05:01:15;94769.00;;;6.29;65.17
7335;BME280;3708;42.632;23.378;2022-11-15T05:03:43;94771.72;;;6.19;65.74
7335;BME280;3708;42.632;23.378;2022-11-15T05:06:28;94771.00;;;6.37;65.14
7335;BME280;3708;42.632;23.378;2022-11-15T05:08:55;94775.31;;;6.47;64.45
7335;BME280;3708;42.632;23.378;2022-11-15T05:11:24;94780.22;;;6.48;64.26
7335;BME280;3708;42.632;23.378;2022-11-15T05:13:53;94771.84;;;6.51;63.87
7335;BME280;3708;42.632;23.378;2022-11-15T05:16:20;94773.25;;;6.44;65.56
7335;BME280;3708;42.632;23.378;2022-11-15T05:18:48;94774.25;;;6.24;65.74
7335;BME280;3708;42.632;23.378;2022-11-15T05:21:17;94773.06;;;6.17;65.73
7335;BME280;3708;42.632;23.378;2022-11-15T05:23:44;94778.97;;;6.22;66.11
7335;BME280;3708;42.632;23.378;2022-11-15T05:26:11;94779.03;;;6.59;65.86
7335;BME280;3708;42.632;23.378;2022-11-15T05:28:39;94771.66;;;6.85;65.63
7335;BME280;3708;42.632;23.378;2022-11-15T05:31:09;94777.94;;;7.03;65.15
7335;BME280;3708;42.632;23.378;2022-11-15T05:33:37;94770.31;;;7.06;64.68
7335;BME280;3708;42.632;23.378;2022-11-15T05:36:09;94774.19;;;7.09;63.96
7335;BME280;3708;42.632;23.378;2022-11-15T05:38:37;94774.94;;;7.28;64.25
7335;BME280;3708;42.632;23.378;2022-11-15T05:41:05;94774.13;;;7.46;64.31
7335;BME280;3708;42.632;23.378;2022-11-15T05:43:34;94771.91;;;7.53;64.02
7335;BME280;3708;42.632;23.378;2022-11-15T05:46:04;94777.41;;;7.51;63.71
7335;BME280;3708;42.632;23.378;2022-11-15T05:48:31;94770.09;;;7.53;62.86
7335;BME280;3708;42.632;23.378;2022-11-15T05:50:59;94776.25;;;7.57;62.71
7335;BME280;3708;42.632;23.378;2022-11-15T05:53:26;94777.22;;;7.61;62.96
7335;BME280;3708;42.632;23.378;2022-11-15T05:55:54;94777.69;;;7.82;62.66
7335;BME280;3708;42.632;23.378;2022-11-15T05:58:21;94771.31;;;7.88;62.14
7335;BME280;3708;42.632;23.378;2022-11-15T06:00:48;94770.91;;;7.67;61.91
7335;BME280;3708;42.632;23.378;2022-11-15T06:03:16;94780.50;;;6.84;64.71
7335;BME280;3708;42.632;23.378;2022-11-15T06:05:43;94767.16;;;6.90;65.31
7335;BME280;3708;42.632;23.378;2022-11-15T06:08:10;94767.34;;;7.13;64.77
7335;BME280;3708;42.632;23.378;2022-11-15T06:10:37;94776.81;;;6.90;64.60
7335;BME280;3708;42.632;23.378;2022-11-15T06:13:04;94781.41;;;7.12;64.04
7335;BME280;3708;42.632;23.378;2022-11-15T06:15:32;94780.78;;;6.45;66.17
7335;BME280;3708;42.632;23.378;2022-11-15T06:18:00;94778.56;;;6.57;66.38
7335;BME280;3708;42.632;23.378;2022-11-15T06:20:29;94778.41;;;7.05;65.38
7335;BME280;3708;42.632;23.378;2022-11-15T06:22:57;94782.56;;;7.38;64.02
7335;BME280;3708;42.632;23.378;2022-11-15T06:25:25;94791.53;;;7.50;63.41
7335;BME280;3708;42.632;23.378;2022-11-15T06:27:52;94789.78;;;7.46;63.12
7335;BME280;3708;42.632;23.378;2022-11-15T06:30:19;94783.63;;;6.86;63.84
7335;BME280;3708;42.632;23.378;2022-11-15T06:32:46;94784.75;;;6.80;64.61
7335;BME280;3708;42.632;23.378;2022-11-15T06:35:13;94784.66;;;6.66;65.13
7335;BME280;3708;42.632;23.378;2022-11-15T06:37:42;94776.66;;;6.63;66.42
7335;BME280;3708;42.632;23.378;2022-11-15T06:40:10;94771.72;;;6.80;66.76
7335;BME280;3708;42.632;23.378;2022-11-15T06:42:37;94776.44;;;7.15;65.51
7335;BME280;3708;42.632;23.378;2022-11-15T06:45:05;94781.34;;;7.17;65.33
7335;BME280;3708;42.632;23.378;2022-11-15T06:47:32;94774.84;;;7.33;65.45
7335;BME280;3708;42.632;23.378;2022-11-15T06:49:59;94781.03;;;7.37;64.74
7335;BME280;3708;42.632;23.378;2022-11-15T06:52:26;94768.91;;;7.46;65.01
7335;BME280;3708;42.632;23.378;2022-11-15T06:54:59;94777.81;;;7.58;64.89
7335;BME280;3708;42.632;23.378;2022-11-15T06:57:26;94772.63;;;7.58;64.28
7335;BME280;3708;42.632;23.378;2022-11-15T06:59:53;94786.09;;;7.47;64.15
7335;BME280;3708;42.632;23.378;2022-11-15T07:02:20;94776.25;;;7.57;63.14
7335;BME280;3708;42.632;23.378;2022-11-15T07:04:47;94781.41;;;7.62;62.72
7335;BME280;3708;42.632;23.378;2022-11-15T07:07:14;94772.34;;;7.74;63.31
7335;BME280;3708;42.632;23.378;2022-11-15T07:09:41;94765.31;;;8.01;63.64
7335;BME280;3708;42.632;23.378;2022-11-15T07:12:11;94766.31;;;8.32;63.39
7335;BME280;3708;42.632;23.378;2022-11-15T07:14:38;94764.00;;;8.31;61.94
7335;BME280;3708;42.632;23.378;2022-11-15T07:17:05;94770.56;;;8.28;61.91
7335;BME280;3708;42.632;23.378;2022-11-15T07:19:32;94757.13;;;8.35;61.21
7335;BME280;3708;42.632;23.378;2022-11-15T07:21:59;94762.81;;;8.37;61.27
7335;BME280;3708;42.632;23.378;2022-11-15T07:24:26;94759.81;;;8.57;61.05
7335;BME280;3708;42.632;23.378;2022-11-15T07:26:53;94761.66;;;8.57;60.47
7335;BME280;3708;42.632;23.378;2022-11-15T07:29:21;94760.47;;;8.63;61.00
7335;BME280;3708;42.632;23.378;2022-11-15T07:31:49;94760.44;;;8.76;60.32
7335;BME280;3708;42.632;23.378;2022-11-15T07:34:16;94760.22;;;8.86;60.17
7335;BME280;3708;42.632;23.378;2022-11-15T07:36:43;94759.94;;;8.88;60.17
7335;BME280;3708;42.632;23.378;2022-11-15T07:39:09;94755.78;;;8.87;59.67
7335;BME280;3708;42.632;23.378;2022-11-15T07:41:37;94759.53;;;8.94;59.14
7335;BME280;3708;42.632;23.378;2022-11-15T07:44:05;94758.44;;;8.73;59.01
7335;BME280;3708;42.632;23.378;2022-11-15T07:46:33;94768.03;;;9.00;59.25
7335;BME280;3708;42.632;23.378;2022-11-15T07:49:00;94758.41;;;9.09;59.23
7335;BME280;3708;42.632;23.378;2022-11-15T07:51:27;94759.13;;;9.23;58.97
7335;BME280;3708;42.632;23.378;2022-11-15T07:53:54;94751.34;;;9.32;58.68
7335;BME280;3708;42.632;23.378;2022-11-15T07:56:21;94760.44;;;9.56;58.43
7335;BME280;3708;42.632;23.378;2022-11-15T07:58:48;94754.00;;;8.96;59.67
7335;BME280;3708;42.632;23.378;2022-11-15T08:01:15;94760.53;;;8.85;59.38
7335;BME280;3708;42.632;23.378;2022-11-15T08:03:44;94755.78;;;8.87;59.77
7335;BME280;3708;42.632;23.378;2022-11-15T08:06:11;94750.50;;;9.00;59.79
7335;BME280;3708;42.632;23.378;2022-11-15T08:08:38;94755.94;;;8.55;61.00
7335;BME280;3708;42.632;23.378;2022-11-15T08:11:05;94762.66;;;8.47;61.28
7335;BME280;3708;42.632;23.378;2022-11-15T08:13:32;94752.38;;;8.51;60.77
7335;BME280;3708;42.632;23.378;2022-11-15T08:16:01;94754.41;;;8.40;61.06
7335;BME280;3708;42.632;23.378;2022-11-15T08:18:30;94755.09;;;7.91;63.29
7335;BME280;3708;42.632;23.378;2022-11-15T08:21:00;94756.50;;;7.70;62.89
7335;BME280;3708;42.632;23.378;2022-11-15T08:23:27;94756.97;;;7.72;63.28
7335;BME280;3708;42.632;23.378;2022-11-15T08:25:59;94749.25;;;7.81;63.64
7335;BME280;3708;42.632;23.378;2022-11-15T08:28:26;94752.09;;;7.84;63.23
7335;BME280;3708;42.632;23.378;2022-11-15T08:30:53;94754.41;;;6.89;65.91
7335;BME280;3708;42.632;23.378;2022-11-15T08:33:20;94750.25;;;7.39;65.00
7335;BME280;3708;42.632;23.378;2022-11-15T08:35:48;94753.84;;;7.43;65.26
7335;BME280;3708;42.632;23.378;2022-11-15T08:38:16;94754.16;;;7.55;65.26
7335;BME280;3708;42.632;23.378;2022-11-15T08:40:43;94748.13;;;8.00;64.43
7335;BME280;3708;42.632;23.378;2022-11-15T08:43:10;94741.94;;;8.23;62.77
7335;BME280;3708;42.632;23.378;2022-11-15T08:45:36;94742.34;;;8.17;63.19
7335;BME280;3708;42.632;23.378;2022-11-15T08:48:04;94746.53;;;7.72;64.23
7335;BME280;3708;42.632;23.378;2022-11-15T08:50:31;94746.56;;;7.86;64.79
7335;BME280;3708;42.632;23.378;2022-11-15T08:53:04;94732.94;;;8.16;63.87
7335;BME280;3708;42.632;23.378;2022-11-15T08:55:35;94732.75;;;8.39;63.38
7335;BME280;3708;42.632;23.378;2022-11-15T08:58:03;94724.53;;;8.46;63.11
7335;BME280;3708;42.632;23.378;2022-11-15T09:00:30;94734.13;;;8.10;63.28
7335;BME280;3708;42.632;23.378;2022-11-15T09:02:57;94717.22;;;8.34;63.48
7335;BME280;3708;42.632;23.378;2022-11-15T09:05:24;94719.06;;;8.70;62.82
7335;BME280;3708;42.632;23.378;2022-11-15T09:07:52;94709.28;;;8.97;61.86
7335;BME280;3708;42.632;23.378;2022-11-15T09:10:19;94710.06;;;9.20;61.44
7335;BME280;3708;42.632;23.378;2022-11-15T09:12:48;94708.56;;;9.28;60.88
7335;BME280;3708;42.632;23.378;2022-11-15T09:15:16;94701.91;;;9.44;60.55
7335;BME280;3708;42.632;23.378;2022-11-15T09:17:43;94696.69;;;9.44;59.65
7335;BME280;3708;42.632;23.378;2022-11-15T09:20:10;94696.00;;;9.60;59.75
7335;BME280;3708;42.632;23.378;2022-11-15T09:22:37;94688.81;;;8.91;61.27
7335;BME280;3708;42.632;23.378;2022-11-15T09:25:06;94693.31;;;8.77;62.23
7335;BME280;3708;42.632;23.378;2022-11-15T09:27:33;94693.75;;;8.57;63.21
7335;BME280;3708;42.632;23.378;2022-11-15T09:30:02;94690.91;;;8.44;63.08
7335;BME280;3708;42.632;23.378;2022-11-15T09:32:29;94680.28;;;8.99;61.80
7335;BME280;3708;42.632;23.378;2022-11-15T09:34:57;94680.84;;;9.40;61.07
7335;BME280;3708;42.632;23.378;2022-11-15T09:37:24;94683.06;;;9.55;60.35
7335;BME280;3708;42.632;23.378;2022-11-15T09:39:50;94673.91;;;9.83;59.94
7335;BME280;3708;42.632;23.378;2022-11-15T09:42:34;94665.50;;;9.95;58.85
7335;BME280;3708;42.632;23.378;2022-11-15T09:45:16;94665.50;;;9.95;58.77
7335;BME280;3708;42.632;23.378;2022-11-15T09:50:51;94653.75;;;10.32;58.08
7335;BME280;3708;42.632;23.378;2022-11-15T09:53:24;94652.38;;;10.51;57.33
7335;BME280;3708;42.632;23.378;2022-11-15T09:55:58;94649.75;;;10.68;56.71
7335;BME280;3708;42.632;23.378;2022-11-15T09:58:33;94652.25;;;10.48;56.58
7335;BME280;3708;42.632;23.378;2022-11-15T10:01:08;94649.16;;;9.81;58.58
7335;BME280;3708;42.632;23.378;2022-11-15T10:03:39;94646.03;;;10.27;57.12
7335;BME280;3708;42.632;23.378;2022-11-15T10:06:13;94641.13;;;10.59;56.61
7335;BME280;3708;42.632;23.378;2022-11-15T10:08:50;94633.13;;;10.56;56.42
7335;BME280;3708;42.632;23.378;2022-11-15T10:11:21;94643.91;;;10.71;56.19
7335;BME280;3708;42.632;23.378;2022-11-15T10:13:51;94631.56;;;10.21;56.48
7335;BME280;3708;42.632;23.378;2022-11-15T10:19:23;94623.84;;;11.01;55.25
7335;BME280;3708;42.632;23.378;2022-11-15T10:22:00;94620.38;;;11.26;54.65
7335;BME280;3708;42.632;23.378;2022-11-15T10:24:34;94619.63;;;11.64;53.93
7335;BME280;3708;42.632;23.378;2022-11-15T10:27:08;94615.88;;;12.11;52.69
7335;BME280;3708;42.632;23.378;2022-11-15T10:29:42;94617.09;;;12.34;51.48
7335;BME280;3708;42.632;23.378;2022-11-15T10:32:11;94613.38;;;12.76;51.64
7335;BME280;3708;42.632;23.378;2022-11-15T10:34:38;94609.34;;;13.12;50.92
7335;BME280;3708;42.632;23.378;2022-11-15T10:37:05;94598.69;;;13.53;49.34
7335;BME280;3708;42.632;23.378;2022-11-15T10:39:32;94591.47;;;13.86;48.92
7335;BME280;3708;42.632;23.378;2022-11-15T10:42:15;94585.75;;;13.96;48.81
7335;BME280;3708;42.632;23.378;2022-11-15T10:44:43;94578.47;;;14.17;48.36
7335;BME280;3708;42.632;23.378;2022-11-15T10:47:36;94577.41;;;13.94;48.12
7335;BME280;3708;42.632;23.378;2022-11-15T10:50:05;94564.63;;;14.20;47.85
7335;BME280;3708;42.632;23.378;2022-11-15T10:52:35;94576.47;;;14.26;47.71
7335;BME280;3708;42.632;23.378;2022-11-15T10:55:18;94564.78;;;14.12;48.23
7335;BME280;3708;42.632;23.378;2022-11-15T10:57:50;94573.06;;;14.26;48.15
7335;BME280;3708;42.632;23.378;2022-11-15T11:00:29;94565.13;;;14.10;48.30
7335;BME280;3708;42.632;23.378;2022-11-15T11:03:00;94554.53;;;14.34;47.73
7335;BME280;3708;42.632;23.378;2022-11-15T11:05:30;94547.13;;;13.76;48.27
7335;BME280;3708;42.632;23.378;2022-11-15T11:08:00;94544.97;;;13.66;48.66
7335;BME280;3708;42.632;23.378;2022-11-15T11:10:27;94540.44;;;13.78;48.71
7335;BME280;3708;42.632;23.378;2022-11-15T11:12:55;94535.41;;;13.37;49.58
7335;BME280;3708;42.632;23.378;2022-11-15T11:15:24;94539.47;;;13.83;48.70
7335;BME280;3708;42.632;23.378;2022-11-15T11:18:04;94529.50;;;14.40;47.80
7335;BME280;3708;42.632;23.378;2022-11-15T11:20:38;94525.44;;;15.02;46.39
7335;BME280;3708;42.632;23.378;2022-11-15T11:23:23;94524.59;;;15.29;45.79
7335;BME280;3708;42.632;23.378;2022-11-15T11:26:01;94519.59;;;15.55;45.33
7335;BME280;3708;42.632;23.378;2022-11-15T11:28:39;94520.31;;;14.78;46.44
7335;BME280;3708;42.632;23.378;2022-11-15T11:31:24;94509.34;;;14.08;48.22
7335;BME280;3708;42.632;23.378;2022-11-15T11:34:04;94507.94;;;14.38;47.40
7335;BME280;3708;42.632;23.378;2022-11-15T11:36:44;94497.56;;;14.30;47.68
7335;BME280;3708;42.632;23.378;2022-11-15T11:39:25;94497.59;;;14.73;46.70
7335;BME280;3708;42.632;23.378;2022-11-15T11:42:03;94489.53;;;15.13;46.30
7335;BME280;3708;42.632;23.378;2022-11-15T11:44:41;94480.84;;;15.12;45.69
7335;BME280;3708;42.632;23.378;2022-11-15T11:47:11;94476.84;;;15.18;45.39
7335;BME280;3708;42.632;23.378;2022-11-15T11:49:44;94473.06;;;15.16;45.60
7335;BME280;3708;42.632;23.378;2022-11-15T11:52:17;94472.75;;;14.74;46.02
7335;BME280;3708;42.632;23.378;2022-11-15T11:55:02;94465.19;;;15.35;45.54
7335;BME280;3708;42.632;23.378;2022-11-15T11:57:36;94468.25;;;15.37;45.24
7335;BME280;3708;42.632;23.378;2022-11-15T12:00:15;94461.88;;;15.88;44.17
7335;BME280;3708;42.632;23.378;2022-11-15T12:02:48;94456.75;;;16.15;43.87
7335;BME280;3708;42.632;23.378;2022-11-15T12:05:24;94451.66;;;16.06;43.66
7335;BME280;3708;42.632;23.378;2022-11-15T12:07:56;94445.88;;;16.20;43.21
7335;BME280;3708;42.632;23.378;2022-11-15T12:10:30;94446.25;;;15.64;44.47
7335;BME280;3708;42.632;23.378;2022-11-15T12:13:03;94438.28;;;15.45;44.59
7335;BME280;3708;42.632;23.378;2022-11-15T12:15:33;94435.31;;;15.47;44.86
7335;BME280;3708;42.632;23.378;2022-11-15T12:18:03;94427.72;;;15.80;44.08
7335;BME280;3708;42.632;23.378;2022-11-15T12:20:36;94427.09;;;16.25;43.67
7335;BME280;3708;42.632;23.378;2022-11-15T12:23:11;94435.19;;;16.51;43.29
7335;BME280;3708;42.632;23.378;2022-11-15T12:25:44;94419.63;;;16.68;42.49
7335;BME280;3708;42.632;23.378;2022-11-15T12:28:16;94418.91;;;16.30;43.05
7335;BME280;3708;42.632;23.378;2022-11-15T12:30:50;94412.75;;;16.45;43.15
7335;BME280;3708;42.632;23.378;2022-11-15T12:33:30;94415.91;;;17.18;42.09
7335;BME280;3708;42.632;23.378;2022-11-15T12:36:02;94409.28;;;17.31;41.61
7335;BME280;3708;42.632;23.378;2022-11-15T12:38:55;94401.81;;;17.93;40.67
7335;BME280;3708;42.632;23.378;2022-11-15T12:41:24;94408.00;;;18.04;39.88
7335;BME280;3708;42.632;23.378;2022-11-15T12:43:52;94397.56;;;18.18;39.35
7335;BME280;3708;42.632;23.378;2022-11-15T12:49:43;94396.19;;;17.98;39.98
7335;BME280;3708;42.632;23.378;2022-11-15T12:52:12;94390.84;;;18.27;39.27
7335;BME280;3708;42.632;23.378;2022-11-15T12:55:00;94391.25;;;18.66;38.67
7335;BME280;3708;42.632;23.378;2022-11-15T12:57:40;94389.38;;;19.11;37.97
7335;BME280;3708;42.632;23.378;2022-11-15T13:00:38;94384.94;;;19.32;37.66
7335;BME280;3708;42.632;23.378;2022-11-15T13:03:27;94392.28;;;18.98;37.64
7335;BME280;3708;42.632;23.378;2022-11-15T13:05:59;94382.88;;;17.94;39.13
7335;BME280;3708;42.632;23.378;2022-11-15T13:08:42;94377.69;;;18.01;39.51
7335;BME280;3708;42.632;23.378;2022-11-15T13:11:44;94382.72;;;17.80;39.92
7335;BME280;3708;42.632;23.378;2022-11-15T13:14:38;94374.19;;;17.94;39.82
7335;BME280;3708;42.632;23.378;2022-11-15T13:17:28;94372.94;;;17.55;40.21
7335;BME280;3708;42.632;23.378;2022-11-15T13:20:11;94371.69;;;17.75;40.00
7335;BME280;3708;42.632;23.378;2022-11-15T13:22:46;94371.47;;;17.87;40.15
7335;BME280;3708;42.632;23.378;2022-11-15T13:25:52;94364.53;;;18.45;39.22
7335;BME280;3708;42.632;23.378;2022-11-15T13:28:25;94368.63;;;18.79;38.11
7335;BME280;3708;42.632;23.378;2022-11-15T13:30:56;94352.00;;;18.86;37.94
7335;BME280;3708;42.632;23.378;2022-11-15T13:33:30;94352.78;;;18.90;37.66
7335;BME280;3708;42.632;23.378;2022-11-15T13:35:59;94352.94;;;19.08;37.62
7335;BME280;3708;42.632;23.378;2022-11-15T13:38:36;94361.94;;;18.96;37.74
7335;BME280;3708;42.632;23.378;2022-11-15T13:41:20;94361.84;;;18.85;38.24
7335;BME280;3708;42.632;23.378;2022-11-15T13:43:49;94357.00;;;18.94;38.17
7335;BME280;3708;42.632;23.378;2022-11-15T13:46:22;94351.38;;;18.99;37.58
7335;BME280;3708;42.632;23.378;2022-11-15T13:48:54;94352.16;;;19.07;37.81
7335;BME280;3708;42.632;23.378;2022-11-15T13:51:25;94359.41;;;19.14;37.36
7335;BME280;3708;42.632;23.378;2022-11-15T13:53:57;94353.06;;;19.32;45.45
7335;BME280;3708;42.632;23.378;2022-11-15T13:56:27;94345.88;;;20.01;45.64
7335;BME280;3708;42.632;23.378;2022-11-15T13:58:55;94343.97;;;20.12;36.70